Airport View

Enter AWOS ICAO identifier for current METAR.

ex. KFNL

K4O4 051255Z AUTO 07003KT 10SM CLR 18/17 A3004 RMK AO2

5 Aug 2020 13:14

Frequency: 120.0

Phone: 580-286-2217

Other Area AWOS: KDEQ - KPRX - KHHW - KOSA

TAF KTXK 051120Z 0512/0612 08003KT P6SM BKN100 BKN250 FM051500 08005KT P6SM VCTS SCT050CB OVC080 FM051800 04006KT P6SM VCTS SCT050CB OVC080 FM060000 06004KT P6SM SCT050 BKN140 FM060600 08003KT P6SM BKN080